sensor_id;sensor_type;location;lat;lon;timestamp;temperature;humidity
1181;DHT22;579;52.046;8.532;2022-11-15T00:03:04;13.20;1.00
1181;DHT22;579;52.046;8.532;2022-11-15T00:05:34;12.90;1.00
1181;DHT22;579;52.046;8.532;2022-11-15T00:08:01;13.30;1.00
1181;DHT22;579;52.046;8.532;2022-11-15T00:10:27;13.10;1.00
1181;DHT22;579;52.046;8.532;2022-11-15T00:12:53;13.30;1.00
1181;DHT22;579;52.046;8.532;2022-11-15T00:15:19;13.60;1.00
1181;DHT22;579;52.046;8.532;2022-11-15T00:17:48;13.70;1.00
1181;DHT22;579;52.046;8.532;2022-11-15T00:25:18;13.60;1.00
1181;DHT22;579;52.046;8.532;2022-11-15T00:27:44;13.40;1.00
1181;DHT22;579;52.046;8.532;2022-11-15T00:30:11;13.70;1.00
1181;DHT22;579;52.046;8.532;2022-11-15T00:32:38;14.00;1.00
1181;DHT22;579;52.046;8.532;2022-11-15T00:35:05;14.00;1.00
1181;DHT22;579;52.046;8.532;2022-11-15T00:37:32;14.10;1.00
1181;DHT22;579;52.046;8.532;2022-11-15T00:39:58;14.20;1.00
1181;DHT22;579;52.046;8.532;2022-11-15T00:46:36;13.90;1.00
1181;DHT22;579;52.046;8.532;2022-11-15T00:49:03;14.10;1.00
1181;DHT22;579;52.046;8.532;2022-11-15T00:51:30;13.90;1.00
1181;DHT22;579;52.046;8.532;2022-11-15T00:53:56;13.70;1.00
1181;DHT22;579;52.046;8.532;2022-11-15T00:56:22;13.70;1.00
1181;DHT22;579;52.046;8.532;2022-11-15T00:58:48;14.00;1.00
1181;DHT22;579;52.046;8.532;2022-11-15T01:01:15;13.90;1.00
1181;DHT22;579;52.046;8.532;2022-11-15T01:08:16;14.10;1.00
1181;DHT22;579;52.046;8.532;2022-11-15T01:10:42;14.30;1.00
1181;DHT22;579;52.046;8.532;2022-11-15T01:13:09;14.10;1.00
1181;DHT22;579;52.046;8.532;2022-11-15T01:15:39;14.10;1.00
1181;DHT22;579;52.046;8.532;2022-11-15T01:18:06;13.80;1.00
1181;DHT22;579;52.046;8.532;2022-11-15T01:20:32;13.70;1.00
1181;DHT22;579;52.046;8.532;2022-11-15T01:22:58;13.90;1.00
1181;DHT22;579;52.046;8.532;2022-11-15T01:28:04;13.90;1.00
1181;DHT22;579;52.046;8.532;2022-11-15T01:30:31;14.60;1.00
1181;DHT22;579;52.046;8.532;2022-11-15T01:32:57;14.10;1.00
1181;DHT22;579;52.046;8.532;2022-11-15T01:35:23;14.30;1.00
1181;DHT22;579;52.046;8.532;2022-11-15T01:37:49;14.40;1.00
1181;DHT22;579;52.046;8.532;2022-11-15T01:40:16;14.30;1.00
1181;DHT22;579;52.046;8.532;2022-11-15T01:42:42;14.30;1.00
1181;DHT22;579;52.046;8.532;2022-11-15T01:50:17;14.60;1.00
1181;DHT22;579;52.046;8.532;2022-11-15T01:52:46;14.50;1.00
1181;DHT22;579;52.046;8.532;2022-11-15T01:55:17;14.70;1.00
1181;DHT22;579;52.046;8.532;2022-11-15T01:57:47;14.60;1.00
1181;DHT22;579;52.046;8.532;2022-11-15T02:00:16;14.50;1.00
1181;DHT22;579;52.046;8.532;2022-11-15T02:02:43;14.50;1.00
1181;DHT22;579;52.046;8.532;2022-11-15T02:05:09;14.30;1.00
1181;DHT22;579;52.046;8.532;2022-11-15T02:12:13;14.40;1.00
1181;DHT22;579;52.046;8.532;2022-11-15T02:14:42;14.50;1.00
1181;DHT22;579;52.046;8.532;2022-11-15T02:17:32;14.60;1.00
1181;DHT22;579;52.046;8.532;2022-11-15T02:20:27;14.60;1.00
1181;DHT22;579;52.046;8.532;2022-11-15T02:26:50;14.80;1.00
1181;DHT22;579;52.046;8.532;2022-11-15T02:34:36;14.80;1.00
1181;DHT22;579;52.046;8.532;2022-11-15T02:37:13;14.70;1.00
1181;DHT22;579;52.046;8.532;2022-11-15T02:39:49;14.80;1.00
1181;DHT22;579;52.046;8.532;2022-11-15T02:42:21;14.70;1.00
1181;DHT22;579;52.046;8.532;2022-11-15T02:45:11;14.90;1.00
1181;DHT22;579;52.046;8.532;2022-11-15T02:47:43;14.90;1.00
1181;DHT22;579;52.046;8.532;2022-11-15T02:50:16;14.50;1.00
1181;DHT22;579;52.046;8.532;2022-11-15T02:56:45;14.70;1.00
1181;DHT22;579;52.046;8.532;2022-11-15T03:02:36;14.40;1.00
1181;DHT22;579;52.046;8.532;2022-11-15T03:05:17;14.40;1.00
1181;DHT22;579;52.046;8.532;2022-11-15T03:07:53;14.40;1.00
1181;DHT22;579;52.046;8.532;2022-11-15T03:10:26;14.70;1.00
1181;DHT22;579;52.046;8.532;2022-11-15T03:15:52;14.80;1.00
1181;DHT22;579;52.046;8.532;2022-11-15T03:18:27;14.70;1.00
1181;DHT22;579;52.046;8.532;2022-11-15T03:20:58;14.40;1.00
1181;DHT22;579;52.046;8.532;2022-11-15T03:23:26;14.70;1.00
1181;DHT22;579;52.046;8.532;2022-11-15T03:25:56;15.20;1.00
1181;DHT22;579;52.046;8.532;2022-11-15T03:28:27;15.00;1.00
1181;DHT22;579;52.046;8.532;2022-11-15T03:30:58;14.90;1.00
1181;DHT22;579;52.046;8.532;2022-11-15T03:38:21;14.90;1.00
1181;DHT22;579;52.046;8.532;2022-11-15T03:40:54;15.40;1.00
1181;DHT22;579;52.046;8.532;2022-11-15T03:43:29;15.40;1.00
1181;DHT22;579;52.046;8.532;2022-11-15T03:46:01;15.40;1.00
1181;DHT22;579;52.046;8.532;2022-11-15T03:48:30;15.30;1.00
1181;DHT22;579;52.046;8.532;2022-11-15T03:51:00;15.40;1.00
1181;DHT22;579;52.046;8.532;2022-11-15T03:53:27;15.60;1.00
1181;DHT22;579;52.046;8.532;2022-11-15T03:59:46;15.60;1.00
1181;DHT22;579;52.046;8.532;2022-11-15T04:02:12;15.20;1.00
1181;DHT22;579;52.046;8.532;2022-11-15T04:04:39;15.30;1.00
1181;DHT22;579;52.046;8.532;2022-11-15T04:07:05;15.50;1.00
1181;DHT22;579;52.046;8.532;2022-11-15T04:09:32;15.40;1.00
1181;DHT22;579;52.046;8.532;2022-11-15T04:11:58;15.30;1.00
1181;DHT22;579;52.046;8.532;2022-11-15T04:14:24;15.30;1.00
1181;DHT22;579;52.046;8.532;2022-11-15T04:21:14;15.20;1.00
1181;DHT22;579;52.046;8.532;2022-11-15T04:23:59;15.60;1.00
1181;DHT22;579;52.046;8.532;2022-11-15T04:26:38;15.60;1.00
1181;DHT22;579;52.046;8.532;2022-11-15T04:29:04;15.70;1.00
1181;DHT22;579;52.046;8.532;2022-11-15T04:31:57;15.60;1.00
1181;DHT22;579;52.046;8.532;2022-11-15T04:34:23;15.70;1.00
1181;DHT22;579;52.046;8.532;2022-11-15T04:39:39;15.40;1.00
1181;DHT22;579;52.046;8.532;2022-11-15T04:42:05;15.30;1.00
1181;DHT22;579;52.046;8.532;2022-11-15T04:44:31;15.30;1.00
1181;DHT22;579;52.046;8.532;2022-11-15T04:46:57;15.60;1.00
1181;DHT22;579;52.046;8.532;2022-11-15T04:49:24;15.40;1.00
1181;DHT22;579;52.046;8.532;2022-11-15T04:51:50;15.10;1.00
1181;DHT22;579;52.046;8.532;2022-11-15T04:54:16;15.10;1.00
1181;DHT22;579;52.046;8.532;2022-11-15T05:01:45;14.40;1.00
1181;DHT22;579;52.046;8.532;2022-11-15T05:04:12;14.50;1.00
1181;DHT22;579;52.046;8.532;2022-11-15T05:06:48;14.70;1.00
1181;DHT22;579;52.046;8.532;2022-11-15T05:09:15;14.40;1.00
1181;DHT22;579;52.046;8.532;2022-11-15T05:11:42;14.50;1.00
1181;DHT22;579;52.046;8.532;2022-11-15T05:14:08;14.50;1.00
1181;DHT22;579;52.046;8.532;2022-11-15T05:16:35;14.80;1.00
1181;DHT22;579;52.046;8.532;2022-11-15T05:19:43;14.70;1.00
1181;DHT22;579;52.046;8.532;2022-11-15T05:22:10;14.90;1.00
1181;DHT22;579;52.046;8.532;2022-11-15T05:24:36;14.90;1.00
1181;DHT22;579;52.046;8.532;2022-11-15T05:27:02;15.10;1.00
1181;DHT22;579;52.046;8.532;2022-11-15T05:29:28;14.80;1.00
1181;DHT22;579;52.046;8.532;2022-11-15T05:31:55;14.90;1.00
1181;DHT22;579;52.046;8.532;2022-11-15T05:34:21;14.60;1.00
1181;DHT22;579;52.046;8.532;2022-11-15T05:41:48;14.80;1.00
1181;DHT22;579;52.046;8.532;2022-11-15T05:44:18;14.60;1.00
1181;DHT22;579;52.046;8.532;2022-11-15T05:46:47;14.60;1.00
1181;DHT22;579;52.046;8.532;2022-11-15T05:49:16;14.70;1.00
1181;DHT22;579;52.046;8.532;2022-11-15T05:51:45;14.60;1.00
1181;DHT22;579;52.046;8.532;2022-11-15T05:54:13;14.50;1.00
1181;DHT22;579;52.046;8.532;2022-11-15T05:56:40;14.70;1.00
1181;DHT22;579;52.046;8.532;2022-11-15T06:03:46;14.80;1.00
1181;DHT22;579;52.046;8.532;2022-11-15T06:06:12;14.80;1.00
1181;DHT22;579;52.046;8.532;2022-11-15T06:08:39;14.90;1.00
1181;DHT22;579;52.046;8.532;2022-11-15T06:11:05;14.60;1.00
1181;DHT22;579;52.046;8.532;2022-11-15T06:13:32;14.80;1.00
1181;DHT22;579;52.046;8.532;2022-11-15T06:15:58;14.30;1.00
1181;DHT22;579;52.046;8.532;2022-11-15T06:18:25;14.60;1.00
1181;DHT22;579;52.046;8.532;2022-11-15T06:24:46;14.20;1.00
1181;DHT22;579;52.046;8.532;2022-11-15T06:27:12;14.60;1.00
1181;DHT22;579;52.046;8.532;2022-11-15T06:29:38;14.50;1.00
1181;DHT22;579;52.046;8.532;2022-11-15T06:32:05;14.50;1.00
1181;DHT22;579;52.046;8.532;2022-11-15T06:34:31;14.60;1.00
1181;DHT22;579;52.046;8.532;2022-11-15T06:36:57;14.60;1.00
1181;DHT22;579;52.046;8.532;2022-11-15T06:39:23;14.80;1.00
1181;DHT22;579;52.046;8.532;2022-11-15T06:45:46;14.70;1.00
1181;DHT22;579;52.046;8.532;2022-11-15T06:48:12;14.50;1.00
1181;DHT22;579;52.046;8.532;2022-11-15T06:50:38;14.80;1.00
1181;DHT22;579;52.046;8.532;2022-11-15T06:53:05;14.70;1.00
1181;DHT22;579;52.046;8.532;2022-11-15T06:55:32;14.90;1.00
1181;DHT22;579;52.046;8.532;2022-11-15T06:57:59;15.10;1.00
1181;DHT22;579;52.046;8.532;2022-11-15T07:00:25;14.90;1.00
1181;DHT22;579;52.046;8.532;2022-11-15T07:06:13;14.90;1.00
1181;DHT22;579;52.046;8.532;2022-11-15T07:08:40;14.90;1.00
1181;DHT22;579;52.046;8.532;2022-11-15T07:11:09;15.00;1.00
1181;DHT22;579;52.046;8.532;2022-11-15T07:13:39;14.90;1.00
1181;DHT22;579;52.046;8.532;2022-11-15T07:16:10;14.90;1.00
1181;DHT22;579;52.046;8.532;2022-11-15T07:18:40;14.70;1.00
1181;DHT22;579;52.046;8.532;2022-11-15T07:25:49;14.60;1.00
1181;DHT22;579;52.046;8.532;2022-11-15T07:28:16;14.70;1.00
1181;DHT22;579;52.046;8.532;2022-11-15T07:30:43;15.10;1.00
1181;DHT22;579;52.046;8.532;2022-11-15T07:33:10;15.10;1.00
1181;DHT22;579;52.046;8.532;2022-11-15T07:35:37;15.10;1.00
1181;DHT22;579;52.046;8.532;2022-11-15T07:38:03;15.10;1.00
1181;DHT22;579;52.046;8.532;2022-11-15T07:40:31;14.90;1.00
1181;DHT22;579;52.046;8.532;2022-11-15T07:43:19;14.90;1.00
1181;DHT22;579;52.046;8.532;2022-11-15T07:45:46;15.00;1.00
1181;DHT22;579;52.046;8.532;2022-11-15T07:48:13;15.00;1.00
1181;DHT22;579;52.046;8.532;2022-11-15T07:50:41;14.90;1.00
1181;DHT22;579;52.046;8.532;2022-11-15T07:53:09;14.80;1.00
1181;DHT22;579;52.046;8.532;2022-11-15T07:55:36;14.90;1.00
1181;DHT22;579;52.046;8.532;2022-11-15T07:58:11;14.90;1.00
1181;DHT22;579;52.046;8.532;2022-11-15T08:03:16;15.10;1.00
1181;DHT22;579;52.046;8.532;2022-11-15T08:05:43;15.10;1.00
1181;DHT22;579;52.046;8.532;2022-11-15T08:08:18;15.50;1.00
1181;DHT22;579;52.046;8.532;2022-11-15T08:10:45;15.40;1.00
1181;DHT22;579;52.046;8.532;2022-11-15T08:13:12;15.40;1.00
1181;DHT22;579;52.046;8.532;2022-11-15T08:15:39;15.70;1.00
1181;DHT22;579;52.046;8.532;2022-11-15T08:22:58;15.60;1.00
1181;DHT22;579;52.046;8.532;2022-11-15T08:25:29;15.60;1.00
1181;DHT22;579;52.046;8.532;2022-11-15T08:28:02;15.50;1.00
1181;DHT22;579;52.046;8.532;2022-11-15T08:30:30;15.60;1.00
1181;DHT22;579;52.046;8.532;2022-11-15T08:32:58;15.50;1.00
1181;DHT22;579;52.046;8.532;2022-11-15T08:35:24;15.70;1.00
1181;DHT22;579;52.046;8.532;2022-11-15T08:40:39;15.80;1.00
1181;DHT22;579;52.046;8.532;2022-11-15T08:43:06;16.10;1.00
1181;DHT22;579;52.046;8.532;2022-11-15T08:45:34;16.30;1.00
1181;DHT22;579;52.046;8.532;2022-11-15T08:48:01;16.20;1.00
1181;DHT22;579;52.046;8.532;2022-11-15T08:50:28;16.50;1.00
1181;DHT22;579;52.046;8.532;2022-11-15T08:52:55;16.50;1.00
1181;DHT22;579;52.046;8.532;2022-11-15T08:55:21;16.80;1.00
1181;DHT22;579;52.046;8.532;2022-11-15T08:58:11;16.80;1.00
1181;DHT22;579;52.046;8.532;2022-11-15T09:00:37;16.70;1.00
1181;DHT22;579;52.046;8.532;2022-11-15T09:03:05;16.40;1.00
1181;DHT22;579;52.046;8.532;2022-11-15T09:05:33;16.20;1.00
1181;DHT22;579;52.046;8.532;2022-11-15T09:08:02;16.20;1.00
1181;DHT22;579;52.046;8.532;2022-11-15T09:10:28;16.30;1.00
1181;DHT22;579;52.046;8.532;2022-11-15T09:12:57;16.50;1.00
1181;DHT22;579;52.046;8.532;2022-11-15T09:15:46;16.60;1.00
1181;DHT22;579;52.046;8.532;2022-11-15T09:18:13;16.50;1.00
1181;DHT22;579;52.046;8.532;2022-11-15T09:20:39;16.50;1.00
1181;DHT22;579;52.046;8.532;2022-11-15T09:23:06;16.40;1.00
1181;DHT22;579;52.046;8.532;2022-11-15T09:25:32;16.50;1.00
1181;DHT22;579;52.046;8.532;2022-11-15T09:27:59;16.50;1.00
1181;DHT22;579;52.046;8.532;2022-11-15T09:30:25;16.40;1.00
1181;DHT22;579;52.046;8.532;2022-11-15T09:36:15;16.30;1.00
1181;DHT22;579;52.046;8.532;2022-11-15T09:38:43;16.30;1.00
1181;DHT22;579;52.046;8.532;2022-11-15T09:41:34;16.10;1.00
1181;DHT22;579;52.046;8.532;2022-11-15T09:44:55;15.90;1.00
1181;DHT22;579;52.046;8.532;2022-11-15T09:47:39;16.20;1.00
1181;DHT22;579;52.046;8.532;2022-11-15T10:04:17;16.60;1.00
1181;DHT22;579;52.046;8.532;2022-11-15T10:06:51;16.60;1.00
1181;DHT22;579;52.046;8.532;2022-11-15T10:09:25;16.20;1.00
1181;DHT22;579;52.046;8.532;2022-11-15T10:11:55;16.20;1.00
1181;DHT22;579;52.046;8.532;2022-11-15T10:14:24;16.40;1.00
1181;DHT22;579;52.046;8.532;2022-11-15T10:24:19;16.60;1.00
1181;DHT22;579;52.046;8.532;2022-11-15T10:26:50;16.60;1.00
1181;DHT22;579;52.046;8.532;2022-11-15T10:29:20;16.40;1.00
1181;DHT22;579;52.046;8.532;2022-11-15T10:31:47;16.60;1.00
1181;DHT22;579;52.046;8.532;2022-11-15T10:34:15;16.40;1.00
1181;DHT22;579;52.046;8.532;2022-11-15T10:36:45;16.50;1.00
1181;DHT22;579;52.046;8.532;2022-11-15T10:39:14;16.30;1.00
1181;DHT22;579;52.046;8.532;2022-11-15T10:44:27;16.30;1.00
1181;DHT22;579;52.046;8.532;2022-11-15T10:50:02;16.80;1.00
1181;DHT22;579;52.046;8.532;2022-11-15T10:52:32;16.90;1.00
1181;DHT22;579;52.046;8.532;2022-11-15T10:55:05;17.00;1.00
1181;DHT22;579;52.046;8.532;2022-11-15T10:57:50;16.70;1.00
1181;DHT22;579;52.046;8.532;2022-11-15T11:04:50;17.20;1.00
1181;DHT22;579;52.046;8.532;2022-11-15T11:07:21;17.20;1.00
1181;DHT22;579;52.046;8.532;2022-11-15T11:09:57;17.00;1.00
1181;DHT22;579;52.046;8.532;2022-11-15T11:12:29;16.80;1.00
1181;DHT22;579;52.046;8.532;2022-11-15T11:14:58;17.20;1.00
1181;DHT22;579;52.046;8.532;2022-11-15T11:17:40;17.20;1.00
1181;DHT22;579;52.046;8.532;2022-11-15T11:23:06;17.10;1.00
1181;DHT22;579;52.046;8.532;2022-11-15T11:25:49;17.40;1.00
1181;DHT22;579;52.046;8.532;2022-11-15T11:28:33;17.60;1.00
1181;DHT22;579;52.046;8.532;2022-11-15T11:31:15;17.40;1.00
1181;DHT22;579;52.046;8.532;2022-11-15T11:33:52;17.40;1.00
1181;DHT22;579;52.046;8.532;2022-11-15T11:36:30;17.30;1.00
1181;DHT22;579;52.046;8.532;2022-11-15T11:43:25;17.40;1.00
1181;DHT22;579;52.046;8.532;2022-11-15T11:46:23;17.30;1.00
1181;DHT22;579;52.046;8.532;2022-11-15T11:49:00;17.30;1.00
1181;DHT22;579;52.046;8.532;2022-11-15T11:51:34;17.30;1.00
1181;DHT22;579;52.046;8.532;2022-11-15T11:54:11;17.40;1.00
1181;DHT22;579;52.046;8.532;2022-11-15T11:56:41;17.30;1.00
1181;DHT22;579;52.046;8.532;2022-11-15T12:03:47;17.40;1.00
1181;DHT22;579;52.046;8.532;2022-11-15T12:06:21;17.30;1.00
1181;DHT22;579;52.046;8.532;2022-11-15T12:08:53;17.10;1.00
1181;DHT22;579;52.046;8.532;2022-11-15T12:11:29;17.00;1.00
1181;DHT22;579;52.046;8.532;2022-11-15T12:14:05;16.70;1.00
1181;DHT22;579;52.046;8.532;2022-11-15T12:16:39;16.80;1.00
1181;DHT22;579;52.046;8.532;2022-11-15T12:23:48;17.20;1.00
1181;DHT22;579;52.046;8.532;2022-11-15T12:26:20;17.50;1.00
1181;DHT22;579;52.046;8.532;2022-11-15T12:28:52;17.80;1.00
1181;DHT22;579;52.046;8.532;2022-11-15T12:31:24;17.80;1.00
1181;DHT22;579;52.046;8.532;2022-11-15T12:33:56;17.60;1.00
1181;DHT22;579;52.046;8.532;2022-11-15T12:36:36;17.50;1.00
1181;DHT22;579;52.046;8.532;2022-11-15T12:47:27;17.50;1.00
1181;DHT22;579;52.046;8.532;2022-11-15T12:49:54;17.70;1.00
1181;DHT22;579;52.046;8.532;2022-11-15T12:52:21;17.80;1.00
1181;DHT22;579;52.046;8.532;2022-11-15T12:55:02;18.20;1.00
1181;DHT22;579;52.046;8.532;2022-11-15T12:57:43;18.00;1.00
1181;DHT22;579;52.046;8.532;2022-11-15T13:04:21;18.20;1.00
1181;DHT22;579;52.046;8.532;2022-11-15T13:06:52;18.20;1.00
1181;DHT22;579;52.046;8.532;2022-11-15T13:09:52;18.10;1.00
1181;DHT22;579;52.046;8.532;2022-11-15T13:12:52;17.80;1.00
1181;DHT22;579;52.046;8.532;2022-11-15T13:15:45;17.70;1.00
1181;DHT22;579;52.046;8.532;2022-11-15T13:18:38;17.80;1.00
1181;DHT22;579;52.046;8.532;2022-11-15T13:23:52;18.00;1.00
1181;DHT22;579;52.046;8.532;2022-11-15T13:26:19;18.40;1.00
1181;DHT22;579;52.046;8.532;2022-11-15T13:28:48;17.90;1.00
1181;DHT22;579;52.046;8.532;2022-11-15T13:31:25;17.60;1.00
1181;DHT22;579;52.046;8.532;2022-11-15T13:33:56;17.70;1.00
1181;DHT22;579;52.046;8.532;2022-11-15T13:36:28;17.80;1.00
1181;DHT22;579;52.046;8.532;2022-11-15T13:39:01;17.90;1.00
1181;DHT22;579;52.046;8.532;2022-11-15T13:41:47;18.00;1.00
1181;DHT22;579;52.046;8.532;2022-11-15T13:44:19;17.90;1.00
1181;DHT22;579;52.046;8.532;2022-11-15T13:46:47;18.20;1.00
1181;DHT22;579;52.046;8.532;2022-11-15T13:49:13;17.80;1.00
1181;DHT22;579;52.046;8.532;2022-11-15T13:51:43;17.80;1.00
1181;DHT22;579;52.046;8.532;2022-11-15T13:54:18;17.70;1.00
1181;DHT22;579;52.046;8.532;2022-11-15T13:59:49;18.50;1.00
1181;DHT22;579;52.046;8.532;2022-11-15T14:02:19;18.90;1.00
1181;DHT22;579;52.046;8.532;2022-11-15T14:04:50;18.90;1.00
1181;DHT22;579;52.046;8.532;2022-11-15T14:07:19;19.00;1.00
1181;DHT22;579;52.046;8.532;2022-11-15T14:09:48;18.80;1.00
1181;DHT22;579;52.046;8.532;2022-11-15T14:12:30;18.70;1.00
1181;DHT22;579;52.046;8.532;2022-11-15T14:19:47;18.50;1.00
1181;DHT22;579;52.046;8.532;2022-11-15T14:22:17;18.50;1.00
1181;DHT22;579;52.046;8.532;2022-11-15T14:25:03;18.40;1.00
1181;DHT22;579;52.046;8.532;2022-11-15T14:27:33;18.60;1.00
1181;DHT22;579;52.046;8.532;2022-11-15T14:30:00;18.70;1.00
1181;DHT22;579;52.046;8.532;2022-11-15T14:32:28;18.80;1.00
1181;DHT22;579;52.046;8.532;2022-11-15T14:37:36;18.10;1.00
1181;DHT22;579;52.046;8.532;2022-11-15T14:40:05;18.20;1.00
1181;DHT22;579;52.046;8.532;2022-11-15T14:42:32;18.40;1.00
1181;DHT22;579;52.046;8.532;2022-11-15T14:44:58;18.70;1.00
1181;DHT22;579;52.046;8.532;2022-11-15T14:47:25;18.60;1.00
1181;DHT22;579;52.046;8.532;2022-11-15T14:49:51;18.50;1.00
1181;DHT22;579;52.046;8.532;2022-11-15T14:52:24;18.30;1.00
1181;DHT22;579;52.046;8.532;2022-11-15T14:58:17;18.20;1.00
1181;DHT22;579;52.046;8.532;2022-11-15T15:00:43;18.20;1.00
1181;DHT22;579;52.046;8.532;2022-11-15T15:03:09;17.90;1.00
1181;DHT22;579;52.046;8.532;2022-11-15T15:05:38;17.90;1.00
1181;DHT22;579;52.046;8.532;2022-11-15T15:08:06;17.80;1.00
1181;DHT22;579;52.046;8.532;2022-11-15T15:10:34;17.60;1.00
1181;DHT22;579;52.046;8.532;2022-11-15T15:13:02;17.70;1.00
1181;DHT22;579;52.046;8.532;2022-11-15T15:18:08;17.50;1.00
1181;DHT22;579;52.046;8.532;2022-11-15T15:20:35;17.20;1.00
1181;DHT22;579;52.046;8.532;2022-11-15T15:23:02;17.20;1.00
1181;DHT22;579;52.046;8.532;2022-11-15T15:25:30;17.20;1.00
1181;DHT22;579;52.046;8.532;2022-11-15T15:27:58;17.20;1.00
1181;DHT22;579;52.046;8.532;2022-11-15T15:30:27;17.00;1.00
1181;DHT22;579;52.046;8.532;2022-11-15T15:32:54;17.00;1.00
1181;DHT22;579;52.046;8.532;2022-11-15T15:39:22;16.90;1.00
1181;DHT22;579;52.046;8.532;2022-11-15T15:41:48;17.00;1.00
1181;DHT22;579;52.046;8.532;2022-11-15T15:44:14;17.00;1.00
1181;DHT22;579;52.046;8.532;2022-11-15T15:46:41;16.90;1.00
1181;DHT22;579;52.046;8.532;2022-11-15T15:49:09;16.80;1.00
1181;DHT22;579;52.046;8.532;2022-11-15T15:51:35;16.90;1.00
1181;DHT22;579;52.046;8.532;2022-11-15T15:54:01;16.90;1.00
1181;DHT22;579;52.046;8.532;2022-11-15T16:01:32;16.60;1.00
1181;DHT22;579;52.046;8.532;2022-11-15T16:03:58;16.60;1.00
1181;DHT22;579;52.046;8.532;2022-11-15T16:06:34;16.80;1.00
1181;DHT22;579;52.046;8.532;2022-11-15T16:09:03;16.90;1.00
1181;DHT22;579;52.046;8.532;2022-11-15T16:11:30;16.80;1.00
1181;DHT22;579;52.046;8.532;2022-11-15T16:13:56;16.60;1.00
1181;DHT22;579;52.046;8.532;2022-11-15T16:16:23;16.60;1.00
1181;DHT22;579;52.046;8.532;2022-11-15T16:23:16;16.70;1.00
1181;DHT22;579;52.046;8.532;2022-11-15T16:25:47;16.50;1.00
1181;DHT22;579;52.046;8.532;2022-11-15T16:28:19;16.50;1.00
1181;DHT22;579;52.046;8.532;2022-11-15T16:30:47;16.50;1.00
1181;DHT22;579;52.046;8.532;2022-11-15T16:33:13;16.40;1.00
1181;DHT22;579;52.046;8.532;2022-11-15T16:35:40;16.30;1.00
1181;DHT22;579;52.046;8.532;2022-11-15T16:41:59;16.10;1.00
1181;DHT22;579;52.046;8.532;2022-11-15T16:44:27;16.10;1.00
1181;DHT22;579;52.046;8.532;2022-11-15T16:46:54;16.20;1.00
1181;DHT22;579;52.046;8.532;2022-11-15T16:49:20;15.90;1.00
1181;DHT22;579;52.046;8.532;2022-11-15T16:51:48;16.10;1.00
1181;DHT22;579;52.046;8.532;2022-11-15T16:54:15;15.90;1.00
1181;DHT22;579;52.046;8.532;2022-11-15T16:56:41;15.90;1.00
1181;DHT22;579;52.046;8.532;2022-11-15T17:04:12;15.90;1.00
1181;DHT22;579;52.046;8.532;2022-11-15T17:06:41;16.00;1.00
1181;DHT22;579;52.046;8.532;2022-11-15T17:09:10;16.00;1.00
1181;DHT22;579;52.046;8.532;2022-11-15T17:11:39;15.60;1.00
1181;DHT22;579;52.046;8.532;2022-11-15T17:14:06;15.90;1.00
1181;DHT22;579;52.046;8.532;2022-11-15T17:16:32;16.00;1.00
1181;DHT22;579;52.046;8.532;2022-11-15T17:19:00;15.90;1.00
1181;DHT22;579;52.046;8.532;2022-11-15T17:26:32;15.70;1.00
1181;DHT22;579;52.046;8.532;2022-11-15T17:28:58;15.70;1.00
1181;DHT22;579;52.046;8.532;2022-11-15T17:31:26;15.50;1.00
1181;DHT22;579;52.046;8.532;2022-11-15T17:33:54;15.70;1.00
1181;DHT22;579;52.046;8.532;2022-11-15T17:36:20;15.70;1.00
1181;DHT22;579;52.046;8.532;2022-11-15T17:38:47;15.70;1.00
1181;DHT22;579;52.046;8.532;2022-11-15T17:41:16;15.60;1.00
1181;DHT22;579;52.046;8.532;2022-11-15T17:48:47;15.60;1.00
1181;DHT22;579;52.046;8.532;2022-11-15T17:51:16;15.40;1.00
1181;DHT22;579;52.046;8.532;2022-11-15T17:53:44;15.50;1.00
1181;DHT22;579;52.046;8.532;2022-11-15T17:56:12;15.70;1.00
1181;DHT22;579;52.046;8.532;2022-11-15T17:58:40;15.70;1.00
1181;DHT22;579;52.046;8.532;2022-11-15T18:01:08;15.80;1.00
1181;DHT22;579;52.046;8.532;2022-11-15T18:03:35;15.80;1.00
1181;DHT22;579;52.046;8.532;2022-11-15T18:10:48;15.80;1.00
1181;DHT22;579;52.046;8.532;2022-11-15T18:13:14;16.00;1.00
1181;DHT22;579;52.046;8.532;2022-11-15T18:15:40;15.80;1.00
1181;DHT22;579;52.046;8.532;2022-11-15T18:18:06;15.70;1.00
1181;DHT22;579;52.046;8.532;2022-11-15T18:20:33;15.70;1.00
1181;DHT22;579;52.046;8.532;2022-11-15T18:22:59;15.90;1.00
1181;DHT22;579;52.046;8.532;2022-11-15T18:25:25;16.00;1.00
1181;DHT22;579;52.046;8.532;2022-11-15T18:31:47;15.80;1.00
1181;DHT22;579;52.046;8.532;2022-11-15T18:34:15;16.00;1.00
1181;DHT22;579;52.046;8.532;2022-11-15T18:36:42;15.80;1.00
1181;DHT22;579;52.046;8.532;2022-11-15T18:39:09;15.90;1.00
1181;DHT22;579;52.046;8.532;2022-11-15T18:41:41;16.10;1.00
1181;DHT22;579;52.046;8.532;2022-11-15T18:44:07;16.00;1.00
1181;DHT22;579;52.046;8.532;2022-11-15T18:46:34;15.90;1.00
1181;DHT22;579;52.046;8.532;2022-11-15T18:54:04;16.10;1.00
1181;DHT22;579;52.046;8.532;2022-11-15T18:56:31;16.10;1.00
1181;DHT22;579;52.046;8.532;2022-11-15T18:58:59;15.90;1.00
1181;DHT22;579;52.046;8.532;2022-11-15T19:01:27;15.90;1.00
1181;DHT22;579;52.046;8.532;2022-11-15T19:03:56;16.00;1.00
1181;DHT22;579;52.046;8.532;2022-11-15T19:06:24;16.00;1.00
1181;DHT22;579;52.046;8.532;2022-11-15T19:08:53;16.00;1.00
1181;DHT22;579;52.046;8.532;2022-11-15T19:14:48;16.60;1.00
1181;DHT22;579;52.046;8.532;2022-11-15T19:17:14;16.80;1.00
1181;DHT22;579;52.046;8.532;2022-11-15T19:19:41;16.60;1.00
1181;DHT22;579;52.046;8.532;2022-11-15T19:22:07;16.70;1.00
1181;DHT22;579;52.046;8.532;2022-11-15T19:24:33;16.80;1.00
1181;DHT22;579;52.046;8.532;2022-11-15T19:26:59;16.50;1.00
1181;DHT22;579;52.046;8.532;2022-11-15T19:29:25;16.70;1.00
1181;DHT22;579;52.046;8.532;2022-11-15T19:36:54;16.40;1.00
1181;DHT22;579;52.046;8.532;2022-11-15T19:39:20;16.20;1.00
1181;DHT22;579;52.046;8.532;2022-11-15T19:41:47;16.40;1.00
1181;DHT22;579;52.046;8.532;2022-11-15T19:44:14;16.20;1.00
1181;DHT22;579;52.046;8.532;2022-11-15T19:46:41;16.40;1.00
1181;DHT22;579;52.046;8.532;2022-11-15T19:49:09;16.50;1.00
1181;DHT22;579;52.046;8.532;2022-11-15T19:51:35;16.50;1.00
1181;DHT22;579;52.046;8.532;2022-11-15T19:56:43;16.50;1.00
1181;DHT22;579;52.046;8.532;2022-11-15T19:59:09;16.60;1.00
1181;DHT22;579;52.046;8.532;2022-11-15T20:01:37;16.30;1.00
1181;DHT22;579;52.046;8.532;2022-11-15T20:04:04;16.40;1.00
1181;DHT22;579;52.046;8.532;2022-11-15T20:06:33;16.40;1.00
1181;DHT22;579;52.046;8.532;2022-11-15T20:09:00;16.70;1.00
1181;DHT22;579;52.046;8.532;2022-11-15T20:11:27;16.90;1.00
1181;DHT22;579;52.046;8.532;2022-11-15T20:17:18;16.30;1.00
1181;DHT22;579;52.046;8.532;2022-11-15T20:19:45;16.10;1.00
1181;DHT22;579;52.046;8.532;2022-11-15T20:22:11;16.10;1.00
1181;DHT22;579;52.046;8.532;2022-11-15T20:24:37;15.90;1.00
1181;DHT22;579;52.046;8.532;2022-11-15T20:27:03;15.70;1.00
1181;DHT22;579;52.046;8.532;2022-11-15T20:29:30;15.60;1.00
1181;DHT22;579;52.046;8.532;2022-11-15T20:31:57;15.70;1.00
1181;DHT22;579;52.046;8.532;2022-11-15T20:37:15;16.10;1.00
1181;DHT22;579;52.046;8.532;2022-11-15T20:39:44;16.30;1.00
1181;DHT22;579;52.046;8.532;2022-11-15T20:42:10;16.40;1.00
1181;DHT22;579;52.046;8.532;2022-11-15T20:44:36;16.60;1.00
1181;DHT22;579;52.046;8.532;2022-11-15T20:47:03;16.60;1.00
1181;DHT22;579;52.046;8.532;2022-11-15T20:49:30;16.60;1.00
1181;DHT22;579;52.046;8.532;2022-11-15T20:51:56;16.20;1.00
1181;DHT22;579;52.046;8.532;2022-11-15T20:59:18;16.00;1.00
1181;DHT22;579;52.046;8.532;2022-11-15T21:01:44;16.40;1.00
1181;DHT22;579;52.046;8.532;2022-11-15T21:04:12;16.10;1.00
1181;DHT22;579;52.046;8.532;2022-11-15T21:06:38;16.00;1.00